createdAt,value
2019-06-01T00:02:21.258Z,14.73
2019-06-01T00:04:54.957Z,14.67
2019-06-01T00:07:27.628Z,14.66
2019-06-01T00:10:00.309Z,14.63
2019-06-01T00:12:32.996Z,14.69
2019-06-01T00:15:07.688Z,14.75
2019-06-01T00:17:40.293Z,14.82
2019-06-01T00:20:13.073Z,14.85
2019-06-01T00:22:47.420Z,14.90
2019-06-01T00:25:20.282Z,14.83
2019-06-01T00:27:52.963Z,14.76
2019-06-01T00:30:27.315Z,14.69
2019-06-01T00:32:59.335Z,14.66
2019-06-01T00:35:32.435Z,14.75
2019-06-01T00:38:05.514Z,14.79
2019-06-01T00:40:38.508Z,14.85
2019-06-01T00:43:11.177Z,14.86
2019-06-01T00:45:44.541Z,14.88
2019-06-01T00:48:17.154Z,14.88
2019-06-01T00:50:51.002Z,14.86
2019-06-01T00:53:23.958Z,14.83
2019-06-01T00:55:56.234Z,14.78
2019-06-01T00:58:28.900Z,14.78
2019-06-01T01:01:01.578Z,14.84
2019-06-01T01:03:34.248Z,14.82
2019-06-01T01:06:06.928Z,14.78
2019-06-01T01:08:39.616Z,14.76
2019-06-01T01:11:12.301Z,14.81
2019-06-01T01:13:45.659Z,14.85
2019-06-01T01:19:10.699Z,14.94
2019-06-01T01:21:43.693Z,14.99
2019-06-01T01:24:16.380Z,14.98
2019-06-01T01:26:49.056Z,14.99
2019-06-01T01:29:21.630Z,15.03
2019-06-01T01:31:55.640Z,15.03
2019-06-01T01:34:28.361Z,15.05
2019-06-01T01:37:00.995Z,15.08
2019-06-01T01:39:41.130Z,15.07
2019-06-01T01:42:15.273Z,15.07
2019-06-01T01:44:48.445Z,15.08
2019-06-01T01:47:21.049Z,15.12
2019-06-01T01:49:54.100Z,15.19
2019-06-01T01:52:26.804Z,15.26
2019-06-01T01:54:59.587Z,15.28
2019-06-01T01:57:32.564Z,15.32
2019-06-01T02:00:11.810Z,15.36
2019-06-01T02:02:45.005Z,15.41
2019-06-01T02:05:18.281Z,15.43
2019-06-01T02:07:52.787Z,15.49
2019-06-01T02:10:25.612Z,15.52
2019-06-01T02:12:59.384Z,15.51
2019-06-01T02:15:32.487Z,15.51
2019-06-01T02:18:06.191Z,15.52
2019-06-01T02:20:38.977Z,15.54
2019-06-01T02:23:12.260Z,15.56
2019-06-01T02:25:45.051Z,15.57
2019-06-01T02:28:17.940Z,15.58
2019-06-01T02:30:50.676Z,15.58
2019-06-01T02:33:23.589Z,15.61
2019-06-01T02:35:56.270Z,15.62
2019-06-01T02:38:28.742Z,15.67
2019-06-01T02:41:03.102Z,15.66
2019-06-01T02:43:35.667Z,15.68
2019-06-01T02:46:08.216Z,15.70
2019-06-01T02:48:40.888Z,15.70
2019-06-01T02:51:13.479Z,15.71
2019-06-01T02:53:46.252Z,15.70
2019-06-01T02:56:18.939Z,15.70
2019-06-01T02:58:51.627Z,15.76
2019-06-01T03:01:38.846Z,15.79
2019-06-01T03:04:12.925Z,15.79
2019-06-01T03:06:46.350Z,15.80
2019-06-01T03:09:22.513Z,15.85
2019-06-01T03:11:59.378Z,15.84
2019-06-01T03:14:34.412Z,15.81
2019-06-01T03:17:07.879Z,15.88
2019-06-01T03:19:44.183Z,15.85
2019-06-01T03:22:19.512Z,15.92
2019-06-01T03:24:55.071Z,16.01
2019-06-01T03:27:34.508Z,15.99
2019-06-01T03:30:15.226Z,16.07
2019-06-01T03:32:46.420Z,16.10
2019-06-01T03:35:19.090Z,16.11
2019-06-01T03:37:51.778Z,16.13
2019-06-01T03:40:24.448Z,16.12
2019-06-01T03:42:57.333Z,16.10
2019-06-01T03:45:30.197Z,16.10
2019-06-01T03:48:02.794Z,16.11
2019-06-01T03:50:35.592Z,16.17
2019-06-01T03:53:09.876Z,16.29
2019-06-01T03:55:42.880Z,16.37
2019-06-01T03:58:15.866Z,16.48
2019-06-01T04:00:48.540Z,16.56
2019-06-01T04:03:21.125Z,16.61
2019-06-01T04:05:53.900Z,16.66
2019-06-01T04:08:26.587Z,16.67
2019-06-01T04:10:59.272Z,16.70
2019-06-01T04:13:32.258Z,16.71
2019-06-01T04:16:05.836Z,16.72
2019-06-01T04:18:38.843Z,16.74
2019-06-01T04:21:12.202Z,16.74
2019-06-01T04:23:45.123Z,16.78
2019-06-01T04:26:17.936Z,16.78
2019-06-01T04:28:50.791Z,16.75
2019-06-01T04:31:23.772Z,16.77
2019-06-01T04:33:56.656Z,16.81
2019-06-01T04:36:29.841Z,16.83
2019-06-01T04:39:03.346Z,16.86
2019-06-01T04:41:36.495Z,16.89
2019-06-01T04:44:10.009Z,17.04
2019-06-01T04:46:43.024Z,17.22
2019-06-01T04:49:15.809Z,17.29
2019-06-01T04:51:48.629Z,17.44
2019-06-01T04:54:21.564Z,17.51
2019-06-01T04:56:54.659Z,17.59
2019-06-01T04:59:27.432Z,17.69
2019-06-01T05:02:00.626Z,17.82
2019-06-01T05:04:33.411Z,17.88
2019-06-01T05:07:07.205Z,18.00
2019-06-01T05:09:39.994Z,18.07
2019-06-01T05:12:13.614Z,18.08
2019-06-01T05:14:46.593Z,18.13
2019-06-01T05:17:19.680Z,18.19
2019-06-01T05:19:52.351Z,18.22
2019-06-01T05:22:25.128Z,18.27
2019-06-01T05:24:57.808Z,18.34
2019-06-01T05:27:30.704Z,18.42
2019-06-01T05:30:02.929Z,18.38
2019-06-01T05:32:36.062Z,18.39
2019-06-01T05:35:11.800Z,18.49
2019-06-01T05:37:44.893Z,18.63
2019-06-01T05:40:19.747Z,18.79
2019-06-01T05:42:52.309Z,18.70
2019-06-01T05:45:25.005Z,18.99
2019-06-01T05:47:57.666Z,19.12
2019-06-01T05:50:30.232Z,19.23
2019-06-01T05:53:03.022Z,19.20
2019-06-01T05:55:35.713Z,19.28
2019-06-01T05:58:08.382Z,19.37
2019-06-01T06:00:45.677Z,19.54
2019-06-01T06:03:22.195Z,19.71
2019-06-01T06:05:52.755Z,19.87
2019-06-01T06:08:25.439Z,19.94
2019-06-01T06:10:58.424Z,20.13
2019-06-01T06:13:31.111Z,20.30
2019-06-01T06:16:03.803Z,20.37
2019-06-01T06:18:36.096Z,20.50
2019-06-01T06:21:08.739Z,20.75
2019-06-01T06:23:41.838Z,21.12
2019-06-01T06:26:15.488Z,21.46
2019-06-01T06:28:48.715Z,21.47
2019-06-01T06:31:21.422Z,21.32
2019-06-01T06:33:56.860Z,21.31
2019-06-01T06:36:29.494Z,21.54
2019-06-01T06:39:04.715Z,21.82
2019-06-01T06:41:36.488Z,21.76
2019-06-01T06:44:09.195Z,21.74
2019-06-01T06:46:41.767Z,21.37
2019-06-01T06:49:15.040Z,21.36
2019-06-01T06:51:47.640Z,21.10
2019-06-01T06:54:20.330Z,21.11
2019-06-01T06:56:52.934Z,21.31
2019-06-01T06:59:26.622Z,21.13
2019-06-01T07:01:59.384Z,21.48
2019-06-01T07:04:32.071Z,21.61
2019-06-01T07:07:04.751Z,21.84
2019-06-01T07:09:39.569Z,22.03
2019-06-01T07:12:12.263Z,21.76
2019-06-01T07:14:44.933Z,21.91
2019-06-01T07:17:17.382Z,21.89
2019-06-01T07:19:51.192Z,21.94
2019-06-01T07:22:23.818Z,22.22
2019-06-01T07:24:56.925Z,22.42
2019-06-01T07:27:29.559Z,22.60
2019-06-01T07:30:02.250Z,22.61
2019-06-01T07:32:34.810Z,22.64
2019-06-01T07:35:08.723Z,23.03
2019-06-01T07:37:41.401Z,22.74
2019-06-01T07:40:14.211Z,23.10
2019-06-01T07:42:47.162Z,23.57
2019-06-01T07:45:20.806Z,23.28
2019-06-01T07:47:53.450Z,23.64
2019-06-01T07:50:26.122Z,23.35
2019-06-01T07:52:59.016Z,23.34
2019-06-01T07:55:33.652Z,23.04
2019-06-01T07:58:06.426Z,23.49
2019-06-01T08:00:39.071Z,23.59
2019-06-01T08:03:11.316Z,24.04
2019-06-01T08:05:44.252Z,23.82
2019-06-01T08:08:16.926Z,23.22
2019-06-01T08:10:49.603Z,23.56
2019-06-01T08:13:23.310Z,22.88
2019-06-01T08:15:56.497Z,23.16
2019-06-01T08:18:30.117Z,23.48
2019-06-01T08:21:04.214Z,23.98
2019-06-01T08:23:36.964Z,24.48
2019-06-01T08:26:10.349Z,24.85
2019-06-01T08:28:42.974Z,24.67
2019-06-01T08:31:15.644Z,24.46
2019-06-01T08:33:48.230Z,24.56
2019-06-01T08:36:20.896Z,24.46
2019-06-01T08:38:53.484Z,24.59
2019-06-01T08:41:27.640Z,24.81
2019-06-01T08:44:01.174Z,24.92
2019-06-01T08:46:34.009Z,24.73
2019-06-01T08:49:06.965Z,24.95
2019-06-01T08:51:39.563Z,25.32
2019-06-01T08:54:12.220Z,25.80
2019-06-01T08:56:44.900Z,25.97
2019-06-01T08:59:17.466Z,26.33
2019-06-01T09:01:50.170Z,26.97
2019-06-01T09:04:22.830Z,26.04
2019-06-01T09:06:55.506Z,25.47
2019-06-01T09:09:28.957Z,25.74
2019-06-01T09:12:01.799Z,26.07
2019-06-01T09:14:35.587Z,25.52
2019-06-01T09:17:08.270Z,26.20
2019-06-01T09:19:40.992Z,26.76
2019-06-01T09:22:14.445Z,26.71
2019-06-01T09:24:47.137Z,26.58
2019-06-01T09:27:19.753Z,26.58
2019-06-01T09:29:52.399Z,27.01
2019-06-01T09:32:26.089Z,27.07
2019-06-01T09:34:58.884Z,27.45
2019-06-01T09:37:32.532Z,26.88
2019-06-01T09:40:09.407Z,26.74
2019-06-01T09:42:42.146Z,26.43
2019-06-01T09:45:15.024Z,25.71
2019-06-01T09:47:47.592Z,25.31
2019-06-01T09:50:20.279Z,24.97
2019-06-01T09:52:53.161Z,24.84
2019-06-01T09:55:25.734Z,24.47
2019-06-01T09:57:58.029Z,24.41
2019-06-01T10:00:30.791Z,24.43
2019-06-01T10:03:03.878Z,24.46
2019-06-01T10:05:36.566Z,24.33
2019-06-01T10:08:09.133Z,24.17
2019-06-01T10:10:42.309Z,24.23
2019-06-01T10:13:14.632Z,24.25
2019-06-01T10:15:47.278Z,24.46
2019-06-01T10:18:19.947Z,24.46
2019-06-01T10:20:52.523Z,24.75
2019-06-01T10:23:25.218Z,24.79
2019-06-01T10:25:57.883Z,26.04
2019-06-01T10:28:31.636Z,26.02
2019-06-01T10:31:05.298Z,27.19
2019-06-01T10:33:38.936Z,26.51
2019-06-01T10:36:20.653Z,25.82
2019-06-01T10:38:47.325Z,25.49
2019-06-01T10:41:20.005Z,24.84
2019-06-01T10:43:52.651Z,24.53
2019-06-01T10:46:25.266Z,24.13
2019-06-01T10:48:57.941Z,23.81
2019-06-01T10:51:31.938Z,23.72
2019-06-01T10:54:05.243Z,23.58
2019-06-01T10:56:38.947Z,23.53
2019-06-01T10:59:11.635Z,23.53
2019-06-01T11:01:43.857Z,23.77
2019-06-01T11:04:16.580Z,24.02
2019-06-01T11:06:49.092Z,24.16
2019-06-01T11:09:21.932Z,24.40
2019-06-01T11:11:54.504Z,24.48
2019-06-01T11:14:27.292Z,24.77
2019-06-01T11:16:59.994Z,24.82
2019-06-01T11:19:33.177Z,25.30
2019-06-01T11:22:06.262Z,26.54
2019-06-01T11:24:39.516Z,26.53
2019-06-01T11:27:12.534Z,27.45
2019-06-01T11:29:51.241Z,27.94
2019-06-01T11:32:19.019Z,28.20
2019-06-01T11:34:51.695Z,28.51
2019-06-01T11:37:24.471Z,28.49
2019-06-01T11:39:57.148Z,27.91
2019-06-01T11:42:29.723Z,28.53
2019-06-01T11:45:02.416Z,29.24
2019-06-01T11:47:35.093Z,29.65
2019-06-01T11:50:08.992Z,29.10
2019-06-01T11:52:41.576Z,28.62
2019-06-01T11:55:14.769Z,29.69
2019-06-01T11:57:47.450Z,30.27
2019-06-01T12:00:20.838Z,30.37
2019-06-01T12:02:53.411Z,30.19
2019-06-01T12:05:26.094Z,29.73
2019-06-01T12:07:59.382Z,29.93
2019-06-01T12:10:32.079Z,29.05
2019-06-01T12:13:04.647Z,29.17
2019-06-01T12:15:38.406Z,29.16
2019-06-01T12:18:11.331Z,29.36
2019-06-01T12:20:44.885Z,29.71
2019-06-01T12:23:17.821Z,29.56
2019-06-01T12:25:50.500Z,30.06
2019-06-01T12:28:23.070Z,30.42
2019-06-01T12:30:55.758Z,29.73
2019-06-01T12:33:28.438Z,30.87
2019-06-01T12:36:00.733Z,31.42
2019-06-01T12:38:34.924Z,31.20
2019-06-01T12:41:07.591Z,30.39
2019-06-01T12:43:41.227Z,30.06
2019-06-01T12:46:14.188Z,29.41
2019-06-01T12:48:46.866Z,29.57
2019-06-01T12:51:19.545Z,29.69
2019-06-01T12:53:52.780Z,30.11
2019-06-01T12:56:25.624Z,29.94
2019-06-01T12:58:57.854Z,30.64
2019-06-01T13:01:30.769Z,30.48
2019-06-01T13:04:03.455Z,30.27
2019-06-01T13:06:36.134Z,30.56
2019-06-01T13:09:10.163Z,31.01
2019-06-01T13:11:43.196Z,30.85
2019-06-01T13:14:16.007Z,30.43
2019-06-01T13:17:03.024Z,30.84
2019-06-01T13:19:23.011Z,30.75
2019-06-01T13:21:55.682Z,30.59
2019-06-01T13:24:28.371Z,31.04
2019-06-01T13:27:01.094Z,31.71
2019-06-01T13:29:33.721Z,30.67
2019-06-01T13:32:06.715Z,31.21
2019-06-01T13:34:39.397Z,30.87
2019-06-01T13:37:11.682Z,31.93
2019-06-01T13:39:45.452Z,31.33
2019-06-01T13:42:18.552Z,31.43
2019-06-01T13:44:51.606Z,31.05
2019-06-01T13:47:24.738Z,31.75
2019-06-01T13:49:57.295Z,31.81
2019-06-01T13:52:29.983Z,31.82
2019-06-01T13:55:02.576Z,32.00
2019-06-01T13:57:38.580Z,31.94
2019-06-01T14:00:15.562Z,33.28
2019-06-01T14:02:49.606Z,33.77
2019-06-01T14:05:20.852Z,31.76
2019-06-01T14:07:55.700Z,33.19
2019-06-01T14:10:28.467Z,34.02
2019-06-01T14:13:05.333Z,33.78
2019-06-01T14:15:37.318Z,33.23
2019-06-01T14:18:09.987Z,34.08
2019-06-01T14:20:42.775Z,33.96
2019-06-01T14:23:15.052Z,33.29
2019-06-01T14:25:47.987Z,31.73
2019-06-01T14:28:20.803Z,30.82
2019-06-01T14:30:54.364Z,30.02
2019-06-01T14:33:27.303Z,30.78
2019-06-01T14:35:59.861Z,31.49
2019-06-01T14:38:46.064Z,31.45
2019-06-01T14:41:06.662Z,31.75
2019-06-01T14:43:38.940Z,30.70
2019-06-01T14:46:11.615Z,29.94
2019-06-01T14:48:44.563Z,29.52
2019-06-01T14:51:17.172Z,31.20
2019-06-01T14:53:49.852Z,32.01
2019-06-01T14:56:22.464Z,32.39
2019-06-01T14:58:56.000Z,32.66
2019-06-01T15:01:32.326Z,33.60
2019-06-01T15:04:02.731Z,33.99
2019-06-01T15:06:35.358Z,34.41
2019-06-01T15:09:18.607Z,34.11
2019-06-01T15:11:43.928Z,32.54
2019-06-01T15:14:16.207Z,33.17
2019-06-01T15:16:49.540Z,33.79
2019-06-01T15:19:22.203Z,33.80
2019-06-01T15:21:56.115Z,34.45
2019-06-01T15:24:29.271Z,33.10
2019-06-01T15:27:03.040Z,34.73
2019-06-01T15:29:35.643Z,33.69
2019-06-01T15:32:09.573Z,31.69
2019-06-01T15:34:42.548Z,31.29
2019-06-01T15:37:14.771Z,32.64
2019-06-01T15:39:47.499Z,33.80
2019-06-01T15:42:21.118Z,34.04
2019-06-01T15:44:55.008Z,34.04
2019-06-01T15:47:27.893Z,34.58
2019-06-01T15:50:00.573Z,34.87
2019-06-01T15:52:33.161Z,34.39
2019-06-01T15:55:08.189Z,34.51
2019-06-01T15:57:41.488Z,34.09
2019-06-01T16:00:16.013Z,34.25
2019-06-01T16:02:49.291Z,32.86
2019-06-01T16:05:22.011Z,32.75
2019-06-01T16:07:55.093Z,33.68
2019-06-01T16:10:27.950Z,33.00
2019-06-01T16:13:01.537Z,33.68
2019-06-01T16:15:34.427Z,33.43
2019-06-01T16:18:07.019Z,33.43
2019-06-01T16:20:39.700Z,34.12
2019-06-01T16:23:12.436Z,35.05
2019-06-01T16:25:52.315Z,34.56
2019-06-01T16:28:19.477Z,34.23
2019-06-01T16:30:52.346Z,33.86
2019-06-01T16:33:24.923Z,34.04
2019-06-01T16:35:58.746Z,33.96
2019-06-01T16:38:31.512Z,34.24
2019-06-01T16:41:05.209Z,32.97
2019-06-01T16:43:38.201Z,33.15
2019-06-01T16:46:11.912Z,33.47
2019-06-01T16:48:44.481Z,33.80
2019-06-01T16:51:16.771Z,33.99
2019-06-01T16:53:49.440Z,34.27
2019-06-01T16:56:22.110Z,32.22
2019-06-01T16:58:55.943Z,30.46
2019-06-01T17:01:28.413Z,31.02
2019-06-01T17:04:01.067Z,32.38
2019-06-01T17:06:33.553Z,33.07
2019-06-01T17:09:09.014Z,33.70
2019-06-01T17:11:41.775Z,33.21
2019-06-01T17:14:14.461Z,34.00
2019-06-01T17:16:47.136Z,34.09
2019-06-01T17:19:19.354Z,33.70
2019-06-01T17:21:51.641Z,33.54
2019-06-01T17:24:24.251Z,32.15
2019-06-01T17:26:57.757Z,31.92
2019-06-01T17:29:30.634Z,32.57
2019-06-01T17:32:16.732Z,32.00
2019-06-01T17:34:37.533Z,30.57
2019-06-01T17:37:10.617Z,30.20
2019-06-01T17:39:43.401Z,30.15
2019-06-01T17:42:16.076Z,30.35
2019-06-01T17:44:48.774Z,29.43
2019-06-01T17:47:21.427Z,28.91
2019-06-01T17:49:54.121Z,28.48
2019-06-01T17:52:26.793Z,28.10
2019-06-01T17:55:00.714Z,28.27
2019-06-01T17:57:33.889Z,27.89
2019-06-01T18:00:11.746Z,27.48
2019-06-01T18:02:45.294Z,27.18
2019-06-01T18:05:17.727Z,27.04
2019-06-01T18:07:50.448Z,26.84
2019-06-01T18:10:24.550Z,26.61
2019-06-01T18:12:57.232Z,26.22
2019-06-01T18:15:29.814Z,26.01
2019-06-01T18:18:02.490Z,25.77
2019-06-01T18:20:36.704Z,25.57
2019-06-01T18:23:10.159Z,25.24
2019-06-01T18:25:43.244Z,25.24
2019-06-01T18:28:19.505Z,25.01
2019-06-01T18:30:51.927Z,24.65
2019-06-01T18:33:24.708Z,24.34
2019-06-01T18:35:57.292Z,24.05
2019-06-01T18:38:29.970Z,23.80
2019-06-01T18:41:11.617Z,23.56
2019-06-01T18:43:36.458Z,23.41
2019-06-01T18:46:10.119Z,23.22
2019-06-01T18:48:43.216Z,23.09
2019-06-01T18:51:15.832Z,22.87
2019-06-01T18:53:48.079Z,22.71
2019-06-01T18:56:20.673Z,22.62
2019-06-01T18:58:53.347Z,22.46
2019-06-01T19:01:26.123Z,22.15
2019-06-01T19:03:58.910Z,22.00
2019-06-01T19:06:31.507Z,21.78
2019-06-01T19:09:05.713Z,21.65
2019-06-01T19:11:38.397Z,21.50
2019-06-01T19:14:11.921Z,21.44
2019-06-01T19:16:44.679Z,21.29
2019-06-01T19:19:17.338Z,21.11
2019-06-01T19:21:50.014Z,21.03
2019-06-01T19:24:22.700Z,20.93
2019-06-01T19:26:55.331Z,20.90
2019-06-01T19:29:27.973Z,20.80
2019-06-01T19:32:00.632Z,20.65
2019-06-01T19:34:32.941Z,20.54
2019-06-01T19:37:06.941Z,20.46
2019-06-01T19:39:40.932Z,20.40
2019-06-01T19:42:13.705Z,20.35
2019-06-01T19:44:46.351Z,20.30
2019-06-01T19:47:19.241Z,20.27
2019-06-01T19:49:51.508Z,20.23
2019-06-01T19:52:24.119Z,20.14
2019-06-01T19:54:56.857Z,20.09
2019-06-01T19:57:29.473Z,19.96
2019-06-01T20:00:02.163Z,19.90
2019-06-01T20:02:35.869Z,19.89
2019-06-01T20:05:08.852Z,19.85
2019-06-01T20:07:41.527Z,19.79
2019-06-01T20:10:14.450Z,19.74
2019-06-01T20:12:47.095Z,19.71
2019-06-01T20:15:19.782Z,19.65
2019-06-01T20:17:52.021Z,19.56
2019-06-01T20:20:24.726Z,19.55
2019-06-01T20:22:57.564Z,19.52
2019-06-01T20:25:29.872Z,19.45
2019-06-01T20:28:02.563Z,19.47
2019-06-01T20:30:35.230Z,19.50
2019-06-01T20:33:07.812Z,19.55
2019-06-01T20:35:40.086Z,19.59
2019-06-01T20:38:14.246Z,19.52
2019-06-01T20:40:47.074Z,19.50
2019-06-01T20:43:20.809Z,19.48
2019-06-01T20:45:56.749Z,19.48
2019-06-01T20:48:28.401Z,19.37
2019-06-01T20:51:01.086Z,19.21
2019-06-01T20:53:33.659Z,19.01
2019-06-01T20:56:06.330Z,18.97
2019-06-01T20:58:39.020Z,18.97
2019-06-01T21:01:11.686Z,18.91
2019-06-01T21:03:44.356Z,18.77
2019-06-01T21:06:18.517Z,18.68
2019-06-01T21:08:51.562Z,18.59
2019-06-01T21:11:24.478Z,18.44
2019-06-01T21:13:56.768Z,18.34
2019-06-01T21:16:29.498Z,18.27
2019-06-01T21:19:02.381Z,18.20
2019-06-01T21:21:35.164Z,18.19
2019-06-01T21:24:07.412Z,18.11
2019-06-01T21:26:40.113Z,18.11
2019-06-01T21:29:12.798Z,18.09
2019-06-01T21:31:45.473Z,18.09
2019-06-01T21:34:21.889Z,18.10
2019-06-01T21:36:53.494Z,18.11
2019-06-01T21:39:25.721Z,18.07
2019-06-01T21:41:58.437Z,17.95
2019-06-01T21:44:31.228Z,17.84
2019-06-01T21:47:04.064Z,17.84
2019-06-01T21:49:36.307Z,17.77
2019-06-01T21:52:08.595Z,17.74
2019-06-01T21:54:41.427Z,17.73
2019-06-01T21:57:14.107Z,17.70
2019-06-01T21:59:47.202Z,17.73
2019-06-01T22:02:20.949Z,17.67
2019-06-01T22:04:54.592Z,17.51
2019-06-01T22:07:27.895Z,17.42
2019-06-01T22:10:00.879Z,17.39
2019-06-01T22:12:33.561Z,17.40
2019-06-01T22:15:08.356Z,17.37
2019-06-01T22:17:40.898Z,17.29
2019-06-01T22:20:13.933Z,17.30
2019-06-01T22:22:46.748Z,17.27
2019-06-01T22:25:20.634Z,17.27
2019-06-01T22:27:53.940Z,17.27
2019-06-01T22:30:26.621Z,17.24
2019-06-01T22:32:59.863Z,17.20
2019-06-01T22:35:32.795Z,17.22
2019-06-01T22:38:06.500Z,17.19
2019-06-01T22:40:39.170Z,17.13
2019-06-01T22:43:12.363Z,17.02
2019-06-01T22:45:45.252Z,16.97
2019-06-01T22:48:20.504Z,16.93
2019-06-01T22:50:53.275Z,16.92
2019-06-01T22:53:26.776Z,16.89
2019-06-01T22:56:00.419Z,16.88
2019-06-01T22:58:33.146Z,16.87
2019-06-01T23:01:06.458Z,16.88
2019-06-01T23:03:39.274Z,16.82
2019-06-01T23:06:12.116Z,16.78
2019-06-01T23:08:45.553Z,16.71
2019-06-01T23:11:18.598Z,16.72
2019-06-01T23:13:53.644Z,16.72
2019-06-01T23:16:26.099Z,16.73
2019-06-01T23:18:59.599Z,16.73
2019-06-01T23:21:32.385Z,16.73
2019-06-01T23:24:05.684Z,16.74
2019-06-01T23:26:38.762Z,16.77
2019-06-01T23:29:12.265Z,16.74
2019-06-01T23:31:44.795Z,16.68
2019-06-01T23:34:17.629Z,16.71
2019-06-01T23:36:50.076Z,16.69
2019-06-01T23:42:12.252Z,16.63
2019-06-01T23:44:44.780Z,16.53
2019-06-01T23:47:17.039Z,16.46
2019-06-01T23:49:49.596Z,16.46
2019-06-01T23:52:23.471Z,16.49
2019-06-01T23:54:56.480Z,16.50
2019-06-01T23:57:30.054Z,16.53
